sensor_id;sensor_type;location;lat;lon;timestamp;P1;P2;P0
50321;PMS5003;36227;53.366;-1.426;2022-09-14T00:01:34;15;14;
50321;PMS5003;36227;53.366;-1.426;2022-09-14T00:04:00;14;14;
50321;PMS5003;36227;53.366;-1.426;2022-09-14T00:06:25;20;17;
50321;PMS5003;36227;53.366;-1.426;2022-09-14T00:08:50;15;13;
50321;PMS5003;36227;53.366;-1.426;2022-09-14T00:11:15;13;13;
50321;PMS5003;36227;53.366;-1.426;2022-09-14T00:13:41;14;14;
50321;PMS5003;36227;53.366;-1.426;2022-09-14T00:16:07;18;16;
50321;PMS5003;36227;53.366;-1.426;2022-09-14T00:18:31;14;13;
50321;PMS5003;36227;53.366;-1.426;2022-09-14T00:20:58;19;16;
50321;PMS5003;36227;53.366;-1.426;2022-09-14T00:23:21;21;19;
50321;PMS5003;36227;53.366;-1.426;2022-09-14T00:25:47;18;16;
50321;PMS5003;36227;53.366;-1.426;2022-09-14T00:28:12;21;19;
50321;PMS5003;36227;53.366;-1.426;2022-09-14T00:30:40;15;14;
50321;PMS5003;36227;53.366;-1.426;2022-09-14T00:33:03;15;15;
50321;PMS5003;36227;53.366;-1.426;2022-09-14T00:35:28;17;15;
50321;PMS5003;36227;53.366;-1.426;2022-09-14T00:37:53;19;19;
50321;PMS5003;36227;53.366;-1.426;2022-09-14T00:40:19;15;14;
50321;PMS5003;36227;53.366;-1.426;2022-09-14T00:42:44;15;13;
50321;PMS5003;36227;53.366;-1.426;2022-09-14T00:45:14;19;19;
50321;PMS5003;36227;53.366;-1.426;2022-09-14T00:47:35;17;15;
50321;PMS5003;36227;53.366;-1.426;2022-09-14T00:50:02;19;16;
50321;PMS5003;36227;53.366;-1.426;2022-09-14T00:52:27;19;19;
50321;PMS5003;36227;53.366;-1.426;2022-09-14T00:54:52;14;13;
50321;PMS5003;36227;53.366;-1.426;2022-09-14T00:57:17;18;17;
50321;PMS5003;36227;53.366;-1.426;2022-09-14T00:59:42;16;15;
50321;PMS5003;36227;53.366;-1.426;2022-09-14T01:02:08;15;15;
50321;PMS5003;36227;53.366;-1.426;2022-09-14T01:04:32;19;16;
50321;PMS5003;36227;53.366;-1.426;2022-09-14T01:07:00;21;21;
50321;PMS5003;36227;53.366;-1.426;2022-09-14T01:09:25;20;20;
50321;PMS5003;36227;53.366;-1.426;2022-09-14T01:11:55;22;18;
50321;PMS5003;36227;53.366;-1.426;2022-09-14T01:14:16;21;21;
50321;PMS5003;36227;53.366;-1.426;2022-09-14T01:16:42;19;18;
50321;PMS5003;36227;53.366;-1.426;2022-09-14T01:19:15;22;20;
50321;PMS5003;36227;53.366;-1.426;2022-09-14T01:21:32;17;17;
50321;PMS5003;36227;53.366;-1.426;2022-09-14T01:23:59;18;17;
50321;PMS5003;36227;53.366;-1.426;2022-09-14T01:28:49;16;15;
50321;PMS5003;36227;53.366;-1.426;2022-09-14T01:31:15;15;15;
50321;PMS5003;36227;53.366;-1.426;2022-09-14T01:33:40;21;18;
50321;PMS5003;36227;53.366;-1.426;2022-09-14T01:36:05;19;19;
50321;PMS5003;36227;53.366;-1.426;2022-09-14T01:38:30;15;15;
50321;PMS5003;36227;53.366;-1.426;2022-09-14T01:40:55;13;13;
50321;PMS5003;36227;53.366;-1.426;2022-09-14T01:43:23;18;17;
50321;PMS5003;36227;53.366;-1.426;2022-09-14T01:45:46;17;17;
50321;PMS5003;36227;53.366;-1.426;2022-09-14T01:48:10;16;16;
50321;PMS5003;36227;53.366;-1.426;2022-09-14T01:50:36;18;18;
50321;PMS5003;36227;53.366;-1.426;2022-09-14T01:53:04;15;15;
50321;PMS5003;36227;53.366;-1.426;2022-09-14T01:55:27;20;18;
50321;PMS5003;36227;53.366;-1.426;2022-09-14T01:57:53;18;18;
50321;PMS5003;36227;53.366;-1.426;2022-09-14T02:00:20;21;19;
50321;PMS5003;36227;53.366;-1.426;2022-09-14T02:02:44;17;17;
50321;PMS5003;36227;53.366;-1.426;2022-09-14T02:05:11;22;20;
50321;PMS5003;36227;53.366;-1.426;2022-09-14T02:07:35;21;21;
50321;PMS5003;36227;53.366;-1.426;2022-09-14T02:10:00;20;19;
50321;PMS5003;36227;53.366;-1.426;2022-09-14T02:12:25;22;22;
50321;PMS5003;36227;53.366;-1.426;2022-09-14T02:14:51;25;24;
50321;PMS5003;36227;53.366;-1.426;2022-09-14T02:17:16;21;20;
50321;PMS5003;36227;53.366;-1.426;2022-09-14T02:19:43;26;20;
50321;PMS5003;36227;53.366;-1.426;2022-09-14T02:22:07;22;21;
50321;PMS5003;36227;53.366;-1.426;2022-09-14T02:24:33;27;25;
50321;PMS5003;36227;53.366;-1.426;2022-09-14T02:26:58;27;25;
50321;PMS5003;36227;53.366;-1.426;2022-09-14T02:29:23;30;28;
50321;PMS5003;36227;53.366;-1.426;2022-09-14T02:31:57;27;26;
50321;PMS5003;36227;53.366;-1.426;2022-09-14T02:34:17;24;23;
50321;PMS5003;36227;53.366;-1.426;2022-09-14T02:36:44;28;24;
50321;PMS5003;36227;53.366;-1.426;2022-09-14T02:39:07;25;24;
50321;PMS5003;36227;53.366;-1.426;2022-09-14T02:41:34;26;24;
50321;PMS5003;36227;53.366;-1.426;2022-09-14T02:43:58;24;23;
50321;PMS5003;36227;53.366;-1.426;2022-09-14T02:46:26;26;26;
50321;PMS5003;36227;53.366;-1.426;2022-09-14T02:48:48;26;24;
50321;PMS5003;36227;53.366;-1.426;2022-09-14T02:51:16;25;24;
50321;PMS5003;36227;53.366;-1.426;2022-09-14T02:53:41;29;26;
50321;PMS5003;36227;53.366;-1.426;2022-09-14T02:56:05;28;28;
50321;PMS5003;36227;53.366;-1.426;2022-09-14T02:58:33;42;33;
50321;PMS5003;36227;53.366;-1.426;2022-09-14T03:00:55;26;26;
50321;PMS5003;36227;53.366;-1.426;2022-09-14T03:03:21;31;30;
50321;PMS5003;36227;53.366;-1.426;2022-09-14T03:05:46;26;26;
50321;PMS5003;36227;53.366;-1.426;2022-09-14T03:08:12;26;25;
50321;PMS5003;36227;53.366;-1.426;2022-09-14T03:10:37;27;27;
50321;PMS5003;36227;53.366;-1.426;2022-09-14T03:13:03;28;26;
50321;PMS5003;36227;53.366;-1.426;2022-09-14T03:15:29;25;23;
50321;PMS5003;36227;53.366;-1.426;2022-09-14T03:17:54;24;22;
50321;PMS5003;36227;53.366;-1.426;2022-09-14T03:20:19;30;27;
50321;PMS5003;36227;53.366;-1.426;2022-09-14T03:22:44;23;21;
50321;PMS5003;36227;53.366;-1.426;2022-09-14T03:25:09;26;25;
50321;PMS5003;36227;53.366;-1.426;2022-09-14T03:27:35;23;21;
50321;PMS5003;36227;53.366;-1.426;2022-09-14T03:30:00;25;21;
50321;PMS5003;36227;53.366;-1.426;2022-09-14T03:32:25;24;23;
50321;PMS5003;36227;53.366;-1.426;2022-09-14T03:34:51;23;22;
50321;PMS5003;36227;53.366;-1.426;2022-09-14T03:37:17;26;24;
50321;PMS5003;36227;53.366;-1.426;2022-09-14T03:39:42;24;22;
50321;PMS5003;36227;53.366;-1.426;2022-09-14T03:42:07;24;22;
50321;PMS5003;36227;53.366;-1.426;2022-09-14T03:44:33;27;24;
50321;PMS5003;36227;53.366;-1.426;2022-09-14T03:46:58;27;26;
50321;PMS5003;36227;53.366;-1.426;2022-09-14T03:49:23;23;21;
50321;PMS5003;36227;53.366;-1.426;2022-09-14T03:51:48;23;23;
50321;PMS5003;36227;53.366;-1.426;2022-09-14T03:54:13;32;32;
50321;PMS5003;36227;53.366;-1.426;2022-09-14T03:56:39;29;28;
50321;PMS5003;36227;53.366;-1.426;2022-09-14T03:59:06;27;27;
50321;PMS5003;36227;53.366;-1.426;2022-09-14T04:01:30;33;27;
50321;PMS5003;36227;53.366;-1.426;2022-09-14T04:03:55;29;29;
50321;PMS5003;36227;53.366;-1.426;2022-09-14T04:06:20;31;30;
50321;PMS5003;36227;53.366;-1.426;2022-09-14T04:08:46;29;26;
50321;PMS5003;36227;53.366;-1.426;2022-09-14T04:11:12;37;31;
50321;PMS5003;36227;53.366;-1.426;2022-09-14T04:13:36;31;28;
50321;PMS5003;36227;53.366;-1.426;2022-09-14T04:16:02;28;25;
50321;PMS5003;36227;53.366;-1.426;2022-09-14T04:18:27;27;24;
50321;PMS5003;36227;53.366;-1.426;2022-09-14T04:20:54;24;24;
50321;PMS5003;36227;53.366;-1.426;2022-09-14T04:23:18;28;26;
50321;PMS5003;36227;53.366;-1.426;2022-09-14T04:25:43;26;23;
50321;PMS5003;36227;53.366;-1.426;2022-09-14T04:28:09;26;24;
50321;PMS5003;36227;53.366;-1.426;2022-09-14T04:30:34;21;21;
50321;PMS5003;36227;53.366;-1.426;2022-09-14T04:33:00;23;23;
50321;PMS5003;36227;53.366;-1.426;2022-09-14T04:35:25;23;21;
50321;PMS5003;36227;53.366;-1.426;2022-09-14T04:37:50;24;22;
50321;PMS5003;36227;53.366;-1.426;2022-09-14T04:40:16;24;20;
50321;PMS5003;36227;53.366;-1.426;2022-09-14T04:42:41;22;22;
50321;PMS5003;36227;53.366;-1.426;2022-09-14T04:45:07;27;24;
50321;PMS5003;36227;53.366;-1.426;2022-09-14T04:47:33;25;21;
50321;PMS5003;36227;53.366;-1.426;2022-09-14T04:49:59;25;21;
50321;PMS5003;36227;53.366;-1.426;2022-09-14T04:52:24;23;22;
50321;PMS5003;36227;53.366;-1.426;2022-09-14T04:54:50;25;23;
50321;PMS5003;36227;53.366;-1.426;2022-09-14T04:57:16;22;20;
50321;PMS5003;36227;53.366;-1.426;2022-09-14T04:59:41;21;20;
50321;PMS5003;36227;53.366;-1.426;2022-09-14T05:02:07;24;23;
50321;PMS5003;36227;53.366;-1.426;2022-09-14T05:04:32;20;18;
50321;PMS5003;36227;53.366;-1.426;2022-09-14T05:06:57;26;21;
50321;PMS5003;36227;53.366;-1.426;2022-09-14T05:09:23;25;24;
50321;PMS5003;36227;53.366;-1.426;2022-09-14T05:11:49;25;25;
50321;PMS5003;36227;53.366;-1.426;2022-09-14T05:14:15;21;19;
50321;PMS5003;36227;53.366;-1.426;2022-09-14T05:16:41;20;20;
50321;PMS5003;36227;53.366;-1.426;2022-09-14T05:19:07;26;22;
50321;PMS5003;36227;53.366;-1.426;2022-09-14T05:21:33;26;24;
50321;PMS5003;36227;53.366;-1.426;2022-09-14T05:23:57;27;21;
50321;PMS5003;36227;53.366;-1.426;2022-09-14T05:26:23;21;20;
50321;PMS5003;36227;53.366;-1.426;2022-09-14T05:28:49;17;17;
50321;PMS5003;36227;53.366;-1.426;2022-09-14T05:31:14;17;16;
50321;PMS5003;36227;53.366;-1.426;2022-09-14T05:33:40;22;21;
50321;PMS5003;36227;53.366;-1.426;2022-09-14T05:36:06;20;19;
50321;PMS5003;36227;53.366;-1.426;2022-09-14T05:38:31;14;13;
50321;PMS5003;36227;53.366;-1.426;2022-09-14T05:40:55;19;16;
50321;PMS5003;36227;53.366;-1.426;2022-09-14T05:43:21;13;13;
50321;PMS5003;36227;53.366;-1.426;2022-09-14T05:45:46;16;14;
50321;PMS5003;36227;53.366;-1.426;2022-09-14T05:48:11;14;13;
50321;PMS5003;36227;53.366;-1.426;2022-09-14T05:50:36;14;12;
50321;PMS5003;36227;53.366;-1.426;2022-09-14T05:53:01;13;12;
50321;PMS5003;36227;53.366;-1.426;2022-09-14T05:55:27;15;14;
50321;PMS5003;36227;53.366;-1.426;2022-09-14T05:57:53;12;12;
50321;PMS5003;36227;53.366;-1.426;2022-09-14T06:00:18;11;11;
50321;PMS5003;36227;53.366;-1.426;2022-09-14T06:02:45;12;12;
50321;PMS5003;36227;53.366;-1.426;2022-09-14T06:05:09;10;9;
50321;PMS5003;36227;53.366;-1.426;2022-09-14T06:07:34;13;9;
50321;PMS5003;36227;53.366;-1.426;2022-09-14T06:09:59;11;10;
50321;PMS5003;36227;53.366;-1.426;2022-09-14T06:12:25;11;9;
50321;PMS5003;36227;53.366;-1.426;2022-09-14T06:14:50;10;9;
50321;PMS5003;36227;53.366;-1.426;2022-09-14T06:17:15;11;9;
50321;PMS5003;36227;53.366;-1.426;2022-09-14T06:19:41;8;8;
50321;PMS5003;36227;53.366;-1.426;2022-09-14T06:22:06;8;6;
50321;PMS5003;36227;53.366;-1.426;2022-09-14T06:24:31;8;8;
50321;PMS5003;36227;53.366;-1.426;2022-09-14T06:26:56;7;7;
50321;PMS5003;36227;53.366;-1.426;2022-09-14T06:29:21;9;9;
50321;PMS5003;36227;53.366;-1.426;2022-09-14T06:36:41;7;7;
50321;PMS5003;36227;53.366;-1.426;2022-09-14T06:39:03;7;6;
50321;PMS5003;36227;53.366;-1.426;2022-09-14T06:41:28;6;6;
50321;PMS5003;36227;53.366;-1.426;2022-09-14T06:43:54;6;6;
50321;PMS5003;36227;53.366;-1.426;2022-09-14T06:46:20;4;4;
50321;PMS5003;36227;53.366;-1.426;2022-09-14T06:48:46;6;6;
50321;PMS5003;36227;53.366;-1.426;2022-09-14T06:51:10;5;5;
50321;PMS5003;36227;53.366;-1.426;2022-09-14T06:53:35;6;6;
50321;PMS5003;36227;53.366;-1.426;2022-09-14T06:56:00;6;6;
50321;PMS5003;36227;53.366;-1.426;2022-09-14T06:58:25;6;6;
50321;PMS5003;36227;53.366;-1.426;2022-09-14T07:00:50;6;6;
50321;PMS5003;36227;53.366;-1.426;2022-09-14T07:03:15;7;6;
50321;PMS5003;36227;53.366;-1.426;2022-09-14T07:05:41;6;6;
50321;PMS5003;36227;53.366;-1.426;2022-09-14T07:08:05;5;5;
50321;PMS5003;36227;53.366;-1.426;2022-09-14T07:10:31;6;6;
50321;PMS5003;36227;53.366;-1.426;2022-09-14T07:12:57;9;8;
50321;PMS5003;36227;53.366;-1.426;2022-09-14T07:15:22;8;7;
50321;PMS5003;36227;53.366;-1.426;2022-09-14T07:17:47;6;6;
50321;PMS5003;36227;53.366;-1.426;2022-09-14T07:20:12;6;6;
50321;PMS5003;36227;53.366;-1.426;2022-09-14T07:22:37;11;6;
50321;PMS5003;36227;53.366;-1.426;2022-09-14T07:25:02;7;6;
50321;PMS5003;36227;53.366;-1.426;2022-09-14T07:27:27;7;6;
50321;PMS5003;36227;53.366;-1.426;2022-09-14T07:29:52;4;4;
50321;PMS5003;36227;53.366;-1.426;2022-09-14T07:32:17;7;7;
50321;PMS5003;36227;53.366;-1.426;2022-09-14T07:34:42;9;9;
50321;PMS5003;36227;53.366;-1.426;2022-09-14T07:37:08;6;6;
50321;PMS5003;36227;53.366;-1.426;2022-09-14T07:39:33;10;10;
50321;PMS5003;36227;53.366;-1.426;2022-09-14T07:41:58;10;10;
50321;PMS5003;36227;53.366;-1.426;2022-09-14T07:44:23;9;8;
50321;PMS5003;36227;53.366;-1.426;2022-09-14T07:46:48;9;8;
50321;PMS5003;36227;53.366;-1.426;2022-09-14T07:49:14;8;8;
50321;PMS5003;36227;53.366;-1.426;2022-09-14T07:51:39;9;8;
50321;PMS5003;36227;53.366;-1.426;2022-09-14T07:54:04;9;9;
50321;PMS5003;36227;53.366;-1.426;2022-09-14T07:56:29;13;12;
50321;PMS5003;36227;53.366;-1.426;2022-09-14T07:58:55;12;12;
50321;PMS5003;36227;53.366;-1.426;2022-09-14T08:01:20;11;9;
50321;PMS5003;36227;53.366;-1.426;2022-09-14T08:03:45;11;10;
50321;PMS5003;36227;53.366;-1.426;2022-09-14T08:06:11;9;9;
50321;PMS5003;36227;53.366;-1.426;2022-09-14T08:08:36;14;11;
50321;PMS5003;36227;53.366;-1.426;2022-09-14T08:11:03;11;11;
50321;PMS5003;36227;53.366;-1.426;2022-09-14T08:13:26;12;11;
50321;PMS5003;36227;53.366;-1.426;2022-09-14T08:15:51;19;19;
50321;PMS5003;36227;53.366;-1.426;2022-09-14T08:18:17;13;12;
50321;PMS5003;36227;53.366;-1.426;2022-09-14T08:20:42;18;16;
50321;PMS5003;36227;53.366;-1.426;2022-09-14T08:23:07;18;18;
50321;PMS5003;36227;53.366;-1.426;2022-09-14T08:25:32;21;20;
50321;PMS5003;36227;53.366;-1.426;2022-09-14T08:27:58;16;16;
50321;PMS5003;36227;53.366;-1.426;2022-09-14T08:30:23;16;14;
50321;PMS5003;36227;53.366;-1.426;2022-09-14T08:32:48;15;15;
50321;PMS5003;36227;53.366;-1.426;2022-09-14T08:35:14;19;17;
50321;PMS5003;36227;53.366;-1.426;2022-09-14T08:37:39;15;15;
50321;PMS5003;36227;53.366;-1.426;2022-09-14T08:40:05;14;14;
50321;PMS5003;36227;53.366;-1.426;2022-09-14T08:42:30;17;16;
50321;PMS5003;36227;53.366;-1.426;2022-09-14T08:44:56;19;16;
50321;PMS5003;36227;53.366;-1.426;2022-09-14T08:47:22;13;13;
50321;PMS5003;36227;53.366;-1.426;2022-09-14T08:49:47;16;14;
50321;PMS5003;36227;53.366;-1.426;2022-09-14T08:52:13;16;16;
50321;PMS5003;36227;53.366;-1.426;2022-09-14T08:54:37;18;17;
50321;PMS5003;36227;53.366;-1.426;2022-09-14T08:57:04;14;12;
50321;PMS5003;36227;53.366;-1.426;2022-09-14T08:59:32;17;16;
50321;PMS5003;36227;53.366;-1.426;2022-09-14T09:01:55;13;13;
50321;PMS5003;36227;53.366;-1.426;2022-09-14T09:04:20;18;15;
50321;PMS5003;36227;53.366;-1.426;2022-09-14T09:06:45;11;11;
50321;PMS5003;36227;53.366;-1.426;2022-09-14T09:09:10;17;16;
50321;PMS5003;36227;53.366;-1.426;2022-09-14T09:11:36;18;17;
50321;PMS5003;36227;53.366;-1.426;2022-09-14T09:14:01;15;15;
50321;PMS5003;36227;53.366;-1.426;2022-09-14T09:16:26;13;13;
50321;PMS5003;36227;53.366;-1.426;2022-09-14T09:18:52;11;9;
50321;PMS5003;36227;53.366;-1.426;2022-09-14T09:21:17;8;6;
50321;PMS5003;36227;53.366;-1.426;2022-09-14T09:23:42;7;7;
50321;PMS5003;36227;53.366;-1.426;2022-09-14T09:26:10;8;8;
50321;PMS5003;36227;53.366;-1.426;2022-09-14T09:28:35;15;14;
50321;PMS5003;36227;53.366;-1.426;2022-09-14T09:30:59;13;13;
50321;PMS5003;36227;53.366;-1.426;2022-09-14T09:33:24;21;20;
50321;PMS5003;36227;53.366;-1.426;2022-09-14T09:35:49;12;12;
50321;PMS5003;36227;53.366;-1.426;2022-09-14T09:38:15;20;19;
50321;PMS5003;36227;53.366;-1.426;2022-09-14T09:40:42;24;21;
50321;PMS5003;36227;53.366;-1.426;2022-09-14T09:43:07;20;19;
50321;PMS5003;36227;53.366;-1.426;2022-09-14T09:47:57;21;19;
50321;PMS5003;36227;53.366;-1.426;2022-09-14T09:50:22;17;17;
50321;PMS5003;36227;53.366;-1.426;2022-09-14T09:52:48;14;14;
50321;PMS5003;36227;53.366;-1.426;2022-09-14T09:55:16;15;15;
50321;PMS5003;36227;53.366;-1.426;2022-09-14T09:57:38;13;12;
50321;PMS5003;36227;53.366;-1.426;2022-09-14T10:00:09;16;15;
50321;PMS5003;36227;53.366;-1.426;2022-09-14T10:02:30;15;13;
50321;PMS5003;36227;53.366;-1.426;2022-09-14T10:04:56;16;15;
50321;PMS5003;36227;53.366;-1.426;2022-09-14T10:07:20;11;10;
50321;PMS5003;36227;53.366;-1.426;2022-09-14T10:09:49;10;10;
50321;PMS5003;36227;53.366;-1.426;2022-09-14T10:12:12;9;7;
50321;PMS5003;36227;53.366;-1.426;2022-09-14T10:14:36;13;12;
50321;PMS5003;36227;53.366;-1.426;2022-09-14T10:17:05;9;9;
50321;PMS5003;36227;53.366;-1.426;2022-09-14T10:19:26;12;9;
50321;PMS5003;36227;53.366;-1.426;2022-09-14T10:24:17;9;9;
50321;PMS5003;36227;53.366;-1.426;2022-09-14T10:26:42;6;5;
50321;PMS5003;36227;53.366;-1.426;2022-09-14T10:29:19;10;8;
50321;PMS5003;36227;53.366;-1.426;2022-09-14T10:31:32;6;6;
50321;PMS5003;36227;53.366;-1.426;2022-09-14T10:33:57;7;7;
50321;PMS5003;36227;53.366;-1.426;2022-09-14T10:36:23;7;7;
50321;PMS5003;36227;53.366;-1.426;2022-09-14T10:38:48;7;5;
50321;PMS5003;36227;53.366;-1.426;2022-09-14T10:41:16;7;7;
50321;PMS5003;36227;53.366;-1.426;2022-09-14T10:43:42;7;7;
50321;PMS5003;36227;53.366;-1.426;2022-09-14T10:46:03;8;8;
50321;PMS5003;36227;53.366;-1.426;2022-09-14T10:48:35;8;8;
50321;PMS5003;36227;53.366;-1.426;2022-09-14T10:50:56;8;8;
50321;PMS5003;36227;53.366;-1.426;2022-09-14T10:53:21;9;9;
50321;PMS5003;36227;53.366;-1.426;2022-09-14T10:55:44;12;10;
50321;PMS5003;36227;53.366;-1.426;2022-09-14T10:58:17;9;9;
50321;PMS5003;36227;53.366;-1.426;2022-09-14T11:00:34;9;8;
50321;PMS5003;36227;53.366;-1.426;2022-09-14T11:03:07;8;8;
50321;PMS5003;36227;53.366;-1.426;2022-09-14T11:05:24;6;6;
50321;PMS5003;36227;53.366;-1.426;2022-09-14T11:07:51;8;8;
50321;PMS5003;36227;53.366;-1.426;2022-09-14T11:10:17;8;8;
50321;PMS5003;36227;53.366;-1.426;2022-09-14T11:12:40;5;5;
50321;PMS5003;36227;53.366;-1.426;2022-09-14T11:15:06;8;7;
50321;PMS5003;36227;53.366;-1.426;2022-09-14T11:19:58;9;9;
50321;PMS5003;36227;53.366;-1.426;2022-09-14T11:22:22;8;8;
50321;PMS5003;36227;53.366;-1.426;2022-09-14T11:24:46;7;6;
50321;PMS5003;36227;53.366;-1.426;2022-09-14T11:27:13;8;7;
50321;PMS5003;36227;53.366;-1.426;2022-09-14T11:29:36;5;5;
50321;PMS5003;36227;53.366;-1.426;2022-09-14T11:32:02;10;9;
50321;PMS5003;36227;53.366;-1.426;2022-09-14T11:34:27;6;6;
50321;PMS5003;36227;53.366;-1.426;2022-09-14T11:36:51;8;7;
50321;PMS5003;36227;53.366;-1.426;2022-09-14T11:39:17;6;6;
50321;PMS5003;36227;53.366;-1.426;2022-09-14T11:41:41;7;7;
50321;PMS5003;36227;53.366;-1.426;2022-09-14T11:44:09;9;9;
50321;PMS5003;36227;53.366;-1.426;2022-09-14T11:46:32;7;5;
50321;PMS5003;36227;53.366;-1.426;2022-09-14T11:48:58;5;5;
50321;PMS5003;36227;53.366;-1.426;2022-09-14T11:51:23;3;3;
50321;PMS5003;36227;53.366;-1.426;2022-09-14T11:53:47;6;5;
50321;PMS5003;36227;53.366;-1.426;2022-09-14T11:56:19;7;6;
50321;PMS5003;36227;53.366;-1.426;2022-09-14T11:58:37;6;6;
50321;PMS5003;36227;53.366;-1.426;2022-09-14T12:01:22;8;7;
50321;PMS5003;36227;53.366;-1.426;2022-09-14T12:05:52;5;5;
50321;PMS5003;36227;53.366;-1.426;2022-09-14T12:08:25;7;6;
50321;PMS5003;36227;53.366;-1.426;2022-09-14T12:15:33;9;6;
50321;PMS5003;36227;53.366;-1.426;2022-09-14T12:20:30;4;4;
50321;PMS5003;36227;53.366;-1.426;2022-09-14T12:22:48;9;7;
50321;PMS5003;36227;53.366;-1.426;2022-09-14T12:25:15;6;6;
50321;PMS5003;36227;53.366;-1.426;2022-09-14T12:27:39;7;6;
50321;PMS5003;36227;53.366;-1.426;2022-09-14T12:32:39;12;10;
50321;PMS5003;36227;53.366;-1.426;2022-09-14T12:44:35;6;6;
50321;PMS5003;36227;53.366;-1.426;2022-09-14T12:49:28;5;5;
50321;PMS5003;36227;53.366;-1.426;2022-09-14T12:51:50;7;5;
50321;PMS5003;36227;53.366;-1.426;2022-09-14T12:54:17;8;5;
50321;PMS5003;36227;53.366;-1.426;2022-09-14T12:56:41;6;6;
50321;PMS5003;36227;53.366;-1.426;2022-09-14T12:59:06;8;8;
50321;PMS5003;36227;53.366;-1.426;2022-09-14T13:01:34;5;5;
50321;PMS5003;36227;53.366;-1.426;2022-09-14T13:03:56;7;7;
50321;PMS5003;36227;53.366;-1.426;2022-09-14T13:06:21;7;7;
50321;PMS5003;36227;53.366;-1.426;2022-09-14T13:08:47;5;5;
50321;PMS5003;36227;53.366;-1.426;2022-09-14T13:11:19;8;7;
50321;PMS5003;36227;53.366;-1.426;2022-09-14T13:13:36;8;7;
50321;PMS5003;36227;53.366;-1.426;2022-09-14T13:16:02;9;8;
50321;PMS5003;36227;53.366;-1.426;2022-09-14T13:18:28;8;8;
50321;PMS5003;36227;53.366;-1.426;2022-09-14T13:20:53;13;11;
50321;PMS5003;36227;53.366;-1.426;2022-09-14T13:23:18;10;8;
50321;PMS5003;36227;53.366;-1.426;2022-09-14T13:25:43;6;6;
50321;PMS5003;36227;53.366;-1.426;2022-09-14T13:28:12;9;9;
50321;PMS5003;36227;53.366;-1.426;2022-09-14T13:30:34;9;9;
50321;PMS5003;36227;53.366;-1.426;2022-09-14T13:32:59;8;8;
50321;PMS5003;36227;53.366;-1.426;2022-09-14T13:35:27;9;9;
50321;PMS5003;36227;53.366;-1.426;2022-09-14T13:37:51;8;8;
50321;PMS5003;36227;53.366;-1.426;2022-09-14T13:40:16;8;8;
50321;PMS5003;36227;53.366;-1.426;2022-09-14T13:42:41;7;7;
50321;PMS5003;36227;53.366;-1.426;2022-09-14T13:45:07;5;5;
50321;PMS5003;36227;53.366;-1.426;2022-09-14T13:47:31;7;7;
50321;PMS5003;36227;53.366;-1.426;2022-09-14T13:49:57;7;6;
50321;PMS5003;36227;53.366;-1.426;2022-09-14T13:52:26;8;8;
50321;PMS5003;36227;53.366;-1.426;2022-09-14T13:54:47;8;7;
50321;PMS5003;36227;53.366;-1.426;2022-09-14T13:57:13;8;8;
50321;PMS5003;36227;53.366;-1.426;2022-09-14T14:02:02;7;7;
50321;PMS5003;36227;53.366;-1.426;2022-09-14T14:04:29;7;7;
50321;PMS5003;36227;53.366;-1.426;2022-09-14T14:06:59;8;8;
50321;PMS5003;36227;53.366;-1.426;2022-09-14T14:09:18;10;10;
50321;PMS5003;36227;53.366;-1.426;2022-09-14T14:11:44;6;6;
50321;PMS5003;36227;53.366;-1.426;2022-09-14T14:14:10;7;7;
50321;PMS5003;36227;53.366;-1.426;2022-09-14T14:16:34;10;8;
50321;PMS5003;36227;53.366;-1.426;2022-09-14T14:18:58;8;7;
50321;PMS5003;36227;53.366;-1.426;2022-09-14T14:21:25;10;10;
50321;PMS5003;36227;53.366;-1.426;2022-09-14T14:23:49;8;8;
50321;PMS5003;36227;53.366;-1.426;2022-09-14T14:26:16;7;6;
50321;PMS5003;36227;53.366;-1.426;2022-09-14T14:28:40;11;9;
50321;PMS5003;36227;53.366;-1.426;2022-09-14T14:31:04;10;9;
50321;PMS5003;36227;53.366;-1.426;2022-09-14T14:33:30;11;10;
50321;PMS5003;36227;53.366;-1.426;2022-09-14T14:35:55;8;8;
50321;PMS5003;36227;53.366;-1.426;2022-09-14T14:38:20;7;7;
50321;PMS5003;36227;53.366;-1.426;2022-09-14T14:40:45;10;10;
50321;PMS5003;36227;53.366;-1.426;2022-09-14T14:43:10;9;9;
50321;PMS5003;36227;53.366;-1.426;2022-09-14T14:45:35;6;6;
50321;PMS5003;36227;53.366;-1.426;2022-09-14T14:48:01;8;8;
50321;PMS5003;36227;53.366;-1.426;2022-09-14T14:50:26;6;6;
50321;PMS5003;36227;53.366;-1.426;2022-09-14T14:52:50;8;8;
50321;PMS5003;36227;53.366;-1.426;2022-09-14T14:55:16;8;8;
50321;PMS5003;36227;53.366;-1.426;2022-09-14T14:57:41;6;6;
50321;PMS5003;36227;53.366;-1.426;2022-09-14T15:00:10;6;6;
50321;PMS5003;36227;53.366;-1.426;2022-09-14T15:02:31;7;6;
50321;PMS5003;36227;53.366;-1.426;2022-09-14T15:04:56;7;7;
50321;PMS5003;36227;53.366;-1.426;2022-09-14T15:07:21;6;6;
50321;PMS5003;36227;53.366;-1.426;2022-09-14T15:09:46;7;7;
50321;PMS5003;36227;53.366;-1.426;2022-09-14T15:12:12;7;7;
50321;PMS5003;36227;53.366;-1.426;2022-09-14T15:14:37;7;7;
50321;PMS5003;36227;53.366;-1.426;2022-09-14T15:17:02;8;8;
50321;PMS5003;36227;53.366;-1.426;2022-09-14T15:19:27;9;7;
50321;PMS5003;36227;53.366;-1.426;2022-09-14T15:21:52;5;5;
50321;PMS5003;36227;53.366;-1.426;2022-09-14T15:24:17;9;8;
50321;PMS5003;36227;53.366;-1.426;2022-09-14T15:26:42;7;7;
50321;PMS5003;36227;53.366;-1.426;2022-09-14T15:29:08;7;7;
50321;PMS5003;36227;53.366;-1.426;2022-09-14T15:31:32;9;9;
50321;PMS5003;36227;53.366;-1.426;2022-09-14T15:33:58;8;8;
50321;PMS5003;36227;53.366;-1.426;2022-09-14T15:36:33;7;6;
50321;PMS5003;36227;53.366;-1.426;2022-09-14T15:38:48;7;6;
50321;PMS5003;36227;53.366;-1.426;2022-09-14T15:41:13;6;6;
50321;PMS5003;36227;53.366;-1.426;2022-09-14T15:43:38;10;10;
50321;PMS5003;36227;53.366;-1.426;2022-09-14T15:46:03;7;7;
50321;PMS5003;36227;53.366;-1.426;2022-09-14T15:48:28;7;7;
50321;PMS5003;36227;53.366;-1.426;2022-09-14T15:50:53;6;6;
50321;PMS5003;36227;53.366;-1.426;2022-09-14T15:53:18;6;6;
50321;PMS5003;36227;53.366;-1.426;2022-09-14T15:55:44;8;8;
50321;PMS5003;36227;53.366;-1.426;2022-09-14T15:58:09;7;7;
50321;PMS5003;36227;53.366;-1.426;2022-09-14T16:00:34;7;7;
50321;PMS5003;36227;53.366;-1.426;2022-09-14T16:02:58;6;6;
50321;PMS5003;36227;53.366;-1.426;2022-09-14T16:05:24;9;9;
50321;PMS5003;36227;53.366;-1.426;2022-09-14T16:07:51;6;6;
50321;PMS5003;36227;53.366;-1.426;2022-09-14T16:10:14;7;7;
50321;PMS5003;36227;53.366;-1.426;2022-09-14T16:12:40;10;9;
50321;PMS5003;36227;53.366;-1.426;2022-09-14T16:15:06;8;8;
50321;PMS5003;36227;53.366;-1.426;2022-09-14T16:17:31;7;7;
50321;PMS5003;36227;53.366;-1.426;2022-09-14T16:19:56;6;6;
50321;PMS5003;36227;53.366;-1.426;2022-09-14T16:22:21;7;7;
50321;PMS5003;36227;53.366;-1.426;2022-09-14T16:24:46;6;6;
50321;PMS5003;36227;53.366;-1.426;2022-09-14T16:27:11;8;8;
50321;PMS5003;36227;53.366;-1.426;2022-09-14T16:29:36;7;7;
50321;PMS5003;36227;53.366;-1.426;2022-09-14T16:32:01;8;8;
50321;PMS5003;36227;53.366;-1.426;2022-09-14T16:34:27;9;9;
50321;PMS5003;36227;53.366;-1.426;2022-09-14T16:36:52;7;7;
50321;PMS5003;36227;53.366;-1.426;2022-09-14T16:39:18;7;7;
50321;PMS5003;36227;53.366;-1.426;2022-09-14T16:41:42;6;6;
50321;PMS5003;36227;53.366;-1.426;2022-09-14T16:44:08;6;4;